Time;durP1;ratioP1;P1;durP2;ratioP2;P2;SDS_P1;SDS_P2;PMS_P1;PMS_P2;Temp;Humidity;BMP_temperature;BMP_pressure;BME280_temperature;BME280_humidity;BME280_pressure;Samples;Min_cycle;Max_cycle;Signal;HPM_P1;HPM_P2
2022/05/28 00:00:59;;;;;;;5.80;2.10;;;11.90;62.00;;;;;;4954612;28;20513;-73
2022/05/28 00:03:25;;;;;;;5.38;1.15;;;11.80;62.00;;;;;;4981746;28;20106;-74
2022/05/28 00:05:51;;;;;;;5.80;1.10;;;11.80;62.10;;;;;;4972521;28;20477;-74
2022/05/28 00:08:16;;;;;;;5.55;1.20;;;11.80;62.20;;;;;;4998357;28;20562;-74
2022/05/28 00:10:42;;;;;;;5.40;2.15;;;11.70;62.30;;;;;;4961498;28;20080;-74
2022/05/28 00:13:08;;;;;;;2.90;1.10;;;11.70;62.30;;;;;;4967866;28;20040;-73
2022/05/28 00:15:34;;;;;;;4.35;1.20;;;11.70;62.50;;;;;;4983812;28;20493;-73
2022/05/28 00:17:59;;;;;;;3.85;1.42;;;11.60;62.60;;;;;;4958578;28;20088;-74
2022/05/28 00:20:25;;;;;;;3.55;1.20;;;11.60;62.70;;;;;;4981302;28;20441;-73
2022/05/28 00:22:51;;;;;;;6.50;1.10;;;11.50;62.70;;;;;;4999696;28;20049;-72
2022/05/28 00:25:17;;;;;;;6.32;1.40;;;11.50;62.80;;;;;;4959418;28;20056;-72
2022/05/28 00:27:42;;;;;;;5.78;1.20;;;11.50;62.90;;;;;;5001103;28;20066;-72
2022/05/28 00:30:09;;;;;;;4.60;1.30;;;11.50;63.00;;;;;;4984634;28;20572;-73
2022/05/28 00:32:35;;;;;;;4.88;1.00;;;11.40;63.00;;;;;;4972207;28;20080;-73
2022/05/28 00:35:00;;;;;;;6.32;1.35;;;11.40;63.20;;;;;;4963476;28;20407;-74
2022/05/28 00:37:26;;;;;;;3.20;1.02;;;11.40;63.20;;;;;;4966423;28;20033;-73
2022/05/28 00:39:52;;;;;;;11.48;1.55;;;11.30;63.20;;;;;;4972094;28;20694;-73
2022/05/28 00:42:17;;;;;;;7.85;1.35;;;11.30;63.30;;;;;;5002265;28;20049;-73
2022/05/28 00:44:43;;;;;;;8.40;1.98;;;11.30;63.30;;;;;;4961962;28;20798;-72
2022/05/28 00:47:08;;;;;;;6.07;1.20;;;11.20;63.40;;;;;;4957452;28;20091;-74
2022/05/28 00:49:34;;;;;;;4.25;1.30;;;11.20;63.50;;;;;;4980707;28;20042;-74
2022/05/28 00:52:01;;;;;;;5.38;1.00;;;11.20;63.60;;;;;;4968364;28;20482;-75
2022/05/28 00:54:32;;;;;;;3.90;1.35;;;11.10;63.60;;;;;;4956323;28;20151;-76
2022/05/28 00:56:58;;;;;;;3.92;1.00;;;11.10;63.70;;;;;;4965331;28;20029;-75
2022/05/28 00:59:23;;;;;;;3.45;1.33;;;11.10;63.70;;;;;;4968375;28;20394;-73
2022/05/28 01:01:49;;;;;;;3.90;1.25;;;11.00;63.80;;;;;;4951931;28;20105;-74
2022/05/28 01:04:21;;;;;;;2.05;0.98;;;11.00;64.00;;;;;;4969584;28;20085;-73
2022/05/28 01:07:13;;;;;;;2.08;0.95;;;11.00;64.10;;;;;;4966157;28;20864;-74
2022/05/28 01:10:03;;;;;;;5.57;1.35;;;10.90;64.00;;;;;;4948254;28;20534;-74
2022/05/28 01:12:57;;;;;;;5.90;1.20;;;10.90;64.30;;;;;;4969668;28;20049;-74
2022/05/28 01:15:32;;;;;;;5.68;1.02;;;10.90;64.50;;;;;;4974165;28;20569;-74
2022/05/28 01:18:21;;;;;;;7.93;1.45;;;10.80;64.30;;;;;;4972312;28;20042;-75
2022/05/28 01:20:51;;;;;;;5.90;0.90;;;10.80;64.60;;;;;;4973375;28;20037;-74
2022/05/28 01:23:40;;;;;;;8.00;1.33;;;10.80;64.50;;;;;;4986513;28;20041;-73
2022/05/28 01:26:21;;;;;;;3.97;1.10;;;10.70;64.70;;;;;;4978048;28;20042;-74
2022/05/28 01:28:57;;;;;;;4.60;1.23;;;10.70;64.70;;;;;;4983624;28;20028;-74
2022/05/28 01:31:23;;;;;;;2.28;0.90;;;10.70;64.80;;;;;;4983673;28;20088;-74
2022/05/28 01:33:48;;;;;;;2.65;1.05;;;10.60;64.80;;;;;;4958089;28;20046;-75
2022/05/28 01:36:14;;;;;;;3.78;1.15;;;10.60;64.90;;;;;;4966089;28;20041;-73
2022/05/28 01:38:40;;;;;;;7.20;1.10;;;10.60;65.00;;;;;;4984669;28;20049;-73
2022/05/28 01:41:06;;;;;;;5.53;1.13;;;10.60;65.10;;;;;;4985305;28;20045;-75
2022/05/28 01:43:33;;;;;;;6.45;1.48;;;10.50;65.20;;;;;;4973222;28;20046;-74
2022/05/28 01:45:59;;;;;;;4.97;1.30;;;10.50;65.40;;;;;;5006685;28;20041;-74
2022/05/28 01:48:24;;;;;;;4.00;1.20;;;10.50;65.40;;;;;;4994303;28;20418;-74
2022/05/28 01:50:51;;;;;;;6.97;1.08;;;10.50;65.50;;;;;;4954193;28;20042;-74
2022/05/28 01:56:01;;;;;;;5.30;1.00;;;10.40;65.60;;;;;;4973093;28;20119;-74
2022/05/28 01:58:27;;;;;;;5.25;1.30;;;10.40;65.60;;;;;;4960407;28;20129;-74
2022/05/28 02:00:53;;;;;;;4.50;1.45;;;10.30;65.70;;;;;;4976438;28;20030;-74
2022/05/28 02:03:18;;;;;;;4.15;1.02;;;10.30;65.70;;;;;;4979652;28;20038;-74
2022/05/28 02:05:44;;;;;;;6.57;1.10;;;10.30;65.80;;;;;;4969981;28;20046;-73
2022/05/28 02:08:09;;;;;;;7.30;0.93;;;10.20;65.90;;;;;;5002467;28;20489;-73
2022/05/28 02:10:35;;;;;;;3.63;1.15;;;10.20;66.00;;;;;;4995734;28;20119;-76
2022/05/28 02:13:15;;;;;;;3.75;1.08;;;10.20;66.00;;;;;;4956667;28;20054;-74
2022/05/28 02:15:48;;;;;;;4.70;1.38;;;10.20;66.50;;;;;;4929508;28;20033;-74
2022/05/28 02:18:34;;;;;;;3.78;0.98;;;10.20;66.40;;;;;;4980220;28;20033;-75
2022/05/28 02:21:11;;;;;;;4.05;1.30;;;10.10;66.70;;;;;;5008288;28;20692;-76
2022/05/28 02:23:53;;;;;;;3.70;1.17;;;10.10;66.50;;;;;;4999227;28;20088;-75
2022/05/28 02:26:29;;;;;;;5.28;1.00;;;10.00;66.70;;;;;;4997160;28;20066;-74
2022/05/28 02:28:55;;;;;;;4.72;1.13;;;10.00;66.60;;;;;;4953716;28;20065;-74
2022/05/28 02:31:25;;;;;;;1.95;0.90;;;10.00;66.70;;;;;;5001077;28;20065;-74
2022/05/28 02:33:51;;;;;;;4.95;1.30;;;9.90;66.70;;;;;;4950712;28;20033;-75
2022/05/28 02:36:16;;;;;;;6.47;1.10;;;9.90;66.70;;;;;;4953622;28;20045;-75
2022/05/28 02:38:42;;;;;;;7.18;1.13;;;9.90;66.80;;;;;;4972481;28;20034;-74
2022/05/28 02:41:07;;;;;;;3.38;0.80;;;9.80;66.80;;;;;;4983272;28;20041;-75
2022/05/28 02:43:33;;;;;;;4.03;1.80;;;9.80;66.90;;;;;;5001503;28;20096;-76
2022/05/28 02:46:00;;;;;;;3.78;1.10;;;9.80;67.00;;;;;;5004490;28;20037;-74
2022/05/28 02:48:26;;;;;;;2.83;1.00;;;9.70;67.10;;;;;;4973076;28;20030;-75
2022/05/28 02:50:52;;;;;;;10.30;1.90;;;9.70;67.10;;;;;;4958051;28;20030;-74
2022/05/28 02:53:17;;;;;;;3.28;1.10;;;9.70;67.30;;;;;;4965055;28;20042;-74
2022/05/28 02:55:43;;;;;;;8.23;1.20;;;9.60;67.30;;;;;;4972663;28;20156;-74
2022/05/28 02:58:09;;;;;;;2.30;0.80;;;9.60;67.30;;;;;;4971175;28;20716;-76
2022/05/28 03:00:34;;;;;;;5.55;1.10;;;9.60;68.20;;;;;;4970081;28;20053;-75
2022/05/28 03:03:00;;;;;;;9.32;1.17;;;9.50;67.40;;;;;;4985794;28;20060;-74
2022/05/28 03:05:26;;;;;;;7.00;1.30;;;9.50;67.50;;;;;;4968224;28;20364;-75
2022/05/28 03:07:52;;;;;;;3.10;0.90;;;9.50;67.50;;;;;;5002639;28;20077;-74
2022/05/28 03:10:17;;;;;;;4.60;1.23;;;9.40;67.70;;;;;;4989541;28;20033;-74
2022/05/28 03:12:43;;;;;;;5.45;0.98;;;9.40;67.70;;;;;;4961150;28;20088;-74
2022/05/28 03:15:09;;;;;;;7.88;1.20;;;9.40;67.80;;;;;;4951307;28;20464;-74
2022/05/28 03:17:34;;;;;;;2.42;0.90;;;9.40;67.90;;;;;;5000048;28;20030;-74
2022/05/28 03:20:01;;;;;;;5.55;1.08;;;9.30;68.00;;;;;;4956480;28;20044;-74
2022/05/28 03:22:28;;;;;;;3.53;1.00;;;9.30;68.00;;;;;;4982354;28;20034;-74
2022/05/28 03:24:53;;;;;;;5.07;1.63;;;9.30;68.10;;;;;;4986099;28;20426;-74
2022/05/28 03:27:19;;;;;;;4.55;0.90;;;9.30;68.10;;;;;;4980887;28;20572;-74
2022/05/28 03:29:44;;;;;;;2.33;1.10;;;9.20;68.20;;;;;;4969175;28;20033;-74
2022/05/28 03:32:10;;;;;;;3.83;1.20;;;9.20;68.20;;;;;;4988264;28;20112;-75
2022/05/28 03:34:35;;;;;;;4.15;1.00;;;9.20;68.30;;;;;;4966608;28;20452;-76
2022/05/28 03:37:01;;;;;;;4.35;0.90;;;9.20;68.40;;;;;;5001566;28;20046;-74
2022/05/28 03:39:26;;;;;;;4.38;1.30;;;9.10;68.40;;;;;;4989618;28;20033;-74
2022/05/28 03:41:52;;;;;;;6.88;1.15;;;9.10;68.50;;;;;;4966231;28;20065;-74
2022/05/28 03:44:17;;;;;;;3.60;1.00;;;9.10;68.60;;;;;;4998534;28;20120;-74
2022/05/28 03:46:43;;;;;;;2.20;0.90;;;9.00;68.60;;;;;;4989930;28;20124;-75
2022/05/28 03:49:22;;;;;;;5.90;1.13;;;9.00;68.70;;;;;;4976676;28;20045;-74
2022/05/28 03:51:48;;;;;;;2.80;0.60;;;9.00;69.10;;;;;;4996439;28;20038;-74
2022/05/28 03:54:13;;;;;;;3.78;0.82;;;9.00;68.90;;;;;;4988017;28;20037;-73
2022/05/28 03:56:40;;;;;;;3.70;1.35;;;8.90;68.90;;;;;;4964844;28;20061;-74
2022/05/28 03:59:06;;;;;;;4.43;0.85;;;8.90;69.10;;;;;;4979376;28;20522;-74
2022/05/28 04:01:32;;;;;;;7.25;1.20;;;8.90;69.20;;;;;;4985121;28;20080;-74
2022/05/28 04:03:57;;;;;;;3.28;1.00;;;8.90;69.30;;;;;;4979112;28;20050;-73
2022/05/28 04:06:23;;;;;;;6.38;1.20;;;8.90;69.30;;;;;;4994195;28;20045;-73
2022/05/28 04:08:48;;;;;;;3.90;1.02;;;8.90;69.40;;;;;;4986329;28;20041;-73
2022/05/28 04:11:14;;;;;;;4.25;1.40;;;8.90;69.50;;;;;;4985917;28;20908;-73
2022/05/28 04:13:40;;;;;;;2.63;0.85;;;8.90;69.60;;;;;;4979566;28;20441;-75
2022/05/28 04:16:05;;;;;;;2.47;0.70;;;8.90;69.70;;;;;;4995701;28;20092;-74
2022/05/28 04:18:31;;;;;;;3.80;1.10;;;8.90;69.80;;;;;;4987028;28;20034;-73
2022/05/28 04:20:56;;;;;;;6.30;1.10;;;8.90;69.90;;;;;;4979370;28;20046;-74
2022/05/28 04:23:22;;;;;;;10.38;1.23;;;8.90;70.10;;;;;;4974848;28;20034;-74
2022/05/28 04:25:47;;;;;;;2.58;0.73;;;8.90;70.10;;;;;;4968878;28;20103;-74
2022/05/28 04:28:13;;;;;;;4.47;0.98;;;8.90;70.20;;;;;;4986751;28;20541;-73
2022/05/28 04:30:39;;;;;;;2.72;0.77;;;8.90;70.30;;;;;;4963883;28;20110;-73
2022/05/28 04:33:04;;;;;;;9.13;1.20;;;8.90;70.40;;;;;;4984005;28;20069;-75
2022/05/28 04:35:30;;;;;;;6.85;1.27;;;8.90;70.50;;;;;;4971301;28;20675;-74
2022/05/28 04:37:55;;;;;;;4.57;1.40;;;8.90;70.70;;;;;;4976790;28;20049;-74
2022/05/28 04:40:21;;;;;;;3.60;0.73;;;9.00;70.90;;;;;;4970896;28;20049;-73
2022/05/28 04:42:46;;;;;;;4.78;1.73;;;9.00;71.00;;;;;;4964955;28;20072;-73
2022/05/28 04:45:12;;;;;;;4.97;1.00;;;9.00;71.20;;;;;;4983051;28;20033;-74
2022/05/28 04:47:37;;;;;;;3.60;0.90;;;9.00;71.20;;;;;;4973217;28;20038;-74
2022/05/28 04:50:04;;;;;;;3.55;1.23;;;9.00;71.60;;;;;;4978479;28;20053;-74
2022/05/28 04:52:29;;;;;;;7.38;1.08;;;9.10;71.30;;;;;;4978442;28;20042;-74
2022/05/28 04:54:55;;;;;;;4.72;1.10;;;9.20;71.40;;;;;;4983870;28;20658;-73
2022/05/28 04:57:21;;;;;;;3.55;1.05;;;9.20;71.40;;;;;;4993403;28;20037;-74
2022/05/28 04:59:46;;;;;;;4.70;0.95;;;9.30;71.40;;;;;;4967366;28;20046;-74
2022/05/28 05:02:12;;;;;;;6.93;1.33;;;9.40;71.40;;;;;;4993877;28;20047;-73
2022/05/28 05:04:38;;;;;;;7.38;1.10;;;9.50;71.40;;;;;;4996288;28;20092;-74
2022/05/28 05:07:03;;;;;;;6.05;1.02;;;9.50;71.30;;;;;;4981524;28;20038;-74
2022/05/28 05:09:29;;;;;;;6.03;1.20;;;9.60;71.30;;;;;;4959903;28;20039;-73
2022/05/28 05:11:54;;;;;;;4.38;0.90;;;9.70;71.20;;;;;;4993848;28;20046;-73
2022/05/28 05:14:20;;;;;;;5.97;2.05;;;9.80;71.20;;;;;;4994368;28;20030;-74
2022/05/28 05:16:45;;;;;;;9.02;1.20;;;9.90;71.10;;;;;;4976430;28;20038;-74
2022/05/28 05:19:12;;;;;;;4.68;1.25;;;10.00;71.10;;;;;;4977677;28;20062;-74
2022/05/28 05:21:37;;;;;;;5.22;0.90;;;10.10;71.00;;;;;;4978390;28;20730;-74
2022/05/28 05:24:03;;;;;;;8.40;1.10;;;10.20;70.90;;;;;;4968976;28;20038;-72
2022/05/28 05:26:28;;;;;;;6.80;1.60;;;10.30;71.50;;;;;;4948559;28;20383;-74
2022/05/28 05:28:54;;;;;;;6.80;1.65;;;10.30;70.50;;;;;;4977995;28;20042;-75
2022/05/28 05:31:20;;;;;;;4.53;0.90;;;10.40;70.30;;;;;;4980859;28;20122;-74
2022/05/28 05:33:45;;;;;;;4.28;1.10;;;10.40;70.10;;;;;;4968909;28;20604;-74
2022/05/28 05:36:11;;;;;;;8.07;1.35;;;10.50;70.00;;;;;;4994446;28;20029;-76
2022/05/28 05:38:37;;;;;;;6.65;1.10;;;10.60;70.00;;;;;;4981335;28;20069;-74
2022/05/28 05:41:02;;;;;;;4.95;1.20;;;10.60;69.80;;;;;;4985082;28;20033;-73
2022/05/28 05:43:28;;;;;;;8.57;1.13;;;10.70;69.70;;;;;;4985858;28;20519;-74
2022/05/28 05:45:55;;;;;;;5.03;1.10;;;10.80;69.70;;;;;;4963275;28;20057;-74
2022/05/28 05:48:20;;;;;;;6.40;1.05;;;10.80;69.60;;;;;;4966925;28;20502;-75
2022/05/28 05:50:46;;;;;;;4.43;1.10;;;10.90;69.50;;;;;;4975912;28;20061;-73
2022/05/28 05:53:11;;;;;;;5.22;1.00;;;11.00;69.40;;;;;;4990091;28;20483;-73
2022/05/28 05:55:37;;;;;;;4.95;1.15;;;11.10;69.30;;;;;;4963274;28;20612;-74
2022/05/28 05:58:04;;;;;;;2.65;1.10;;;11.20;69.20;;;;;;4974608;28;20510;-73
2022/05/28 06:00:29;;;;;;;6.78;1.92;;;11.20;69.10;;;;;;4960660;28;20747;-73
2022/05/28 06:02:55;;;;;;;7.05;1.25;;;11.30;69.00;;;;;;4981238;28;20046;-74
2022/05/28 06:05:20;;;;;;;4.45;1.00;;;11.40;68.90;;;;;;4991995;28;20043;-73
2022/05/28 06:07:46;;;;;;;3.20;1.23;;;11.50;68.90;;;;;;4975692;28;20089;-73
2022/05/28 06:10:11;;;;;;;5.95;1.30;;;11.60;68.70;;;;;;4981088;28;20527;-74
2022/05/28 06:12:37;;;;;;;3.95;1.08;;;11.70;68.50;;;;;;4976804;28;20058;-74
2022/05/28 06:15:03;;;;;;;3.50;1.13;;;11.80;68.30;;;;;;4990854;28;20034;-74
2022/05/28 06:17:29;;;;;;;6.43;1.33;;;11.90;68.10;;;;;;4953432;28;20044;-74
2022/05/28 06:19:54;;;;;;;4.35;1.20;;;12.00;68.00;;;;;;4977349;28;20042;-73
2022/05/28 06:22:20;;;;;;;5.18;1.15;;;12.10;67.80;;;;;;4977192;28;20034;-73
2022/05/28 06:24:45;;;;;;;5.75;1.17;;;12.20;67.60;;;;;;4954069;28;20037;-73
2022/05/28 06:27:11;;;;;;;6.95;1.30;;;12.40;67.40;;;;;;4976690;28;20033;-74
2022/05/28 06:29:36;;;;;;;2.10;0.75;;;12.50;67.20;;;;;;4996156;28;20041;-73
2022/05/28 06:32:02;;;;;;;6.95;0.93;;;12.70;66.90;;;;;;4984279;28;20046;-74
2022/05/28 06:34:28;;;;;;;4.13;1.10;;;12.80;66.50;;;;;;4978829;28;20050;-74
2022/05/28 06:36:53;;;;;;;5.50;1.30;;;12.90;66.20;;;;;;4974358;28;20038;-74
2022/05/28 06:39:19;;;;;;;5.85;1.05;;;13.10;66.00;;;;;;4978267;28;20042;-74
2022/05/28 06:41:44;;;;;;;4.75;1.63;;;13.20;65.70;;;;;;4979825;28;20121;-74
2022/05/28 06:44:10;;;;;;;6.93;1.42;;;13.30;65.50;;;;;;4994915;28;20065;-73
2022/05/28 06:46:36;;;;;;;7.43;1.13;;;13.50;65.20;;;;;;4974931;28;20144;-76
2022/05/28 06:49:01;;;;;;;7.70;1.30;;;13.60;64.90;;;;;;4964385;28;20034;-74
2022/05/28 06:51:27;;;;;;;7.13;1.63;;;13.70;64.60;;;;;;4980390;28;20113;-76
2022/05/28 06:53:52;;;;;;;5.63;1.35;;;13.80;64.30;;;;;;4991848;28;20027;-73
2022/05/28 06:56:18;;;;;;;7.00;1.20;;;13.90;64.10;;;;;;4967807;28;20038;-74
2022/05/28 06:58:44;;;;;;;3.88;1.10;;;14.10;64.00;;;;;;4964551;28;20064;-74
2022/05/28 07:01:10;;;;;;;6.30;1.33;;;14.30;63.70;;;;;;4979904;28;20482;-74
2022/05/28 07:03:36;;;;;;;5.00;1.15;;;14.50;63.30;;;;;;4984110;28;20044;-75
2022/05/28 07:06:01;;;;;;;3.90;0.98;;;14.60;62.90;;;;;;4983946;28;20041;-73
2022/05/28 07:08:27;;;;;;;3.88;0.98;;;14.70;62.60;;;;;;4969812;28;20030;-74
2022/05/28 07:10:54;;;;;;;7.00;1.77;;;14.80;62.30;;;;;;4986302;28;20050;-73
2022/05/28 07:13:20;;;;;;;5.03;1.10;;;14.90;61.90;;;;;;4968286;28;20049;-73
2022/05/28 07:15:46;;;;;;;3.72;0.93;;;15.00;61.80;;;;;;4973458;28;20399;-75
2022/05/28 07:18:12;;;;;;;4.38;0.93;;;15.10;61.50;;;;;;4975158;28;20550;-74
2022/05/28 07:20:37;;;;;;;6.30;1.48;;;15.20;61.30;;;;;;4985035;28;20037;-74
2022/05/28 07:23:14;;;;;;;5.70;1.00;;;15.30;61.00;;;;;;4969517;28;20117;-73
2022/05/28 07:25:40;;;;;;;4.53;1.00;;;15.40;60.70;;;;;;4966809;28;20123;-74
2022/05/28 07:28:24;;;;;;;7.18;1.27;;;15.50;60.50;;;;;;4948823;28;20046;-74
2022/05/28 07:31:00;;;;;;;4.38;0.75;;;15.60;60.30;;;;;;4996855;28;20064;-74
2022/05/28 07:33:26;;;;;;;3.08;1.35;;;15.70;60.10;;;;;;4987344;28;20061;-73
2022/05/28 07:35:52;;;;;;;6.28;0.80;;;15.80;59.90;;;;;;4948810;28;20442;-74
2022/05/28 07:38:18;;;;;;;4.57;1.00;;;15.90;59.50;;;;;;4964193;28;20034;-74
2022/05/28 07:40:44;;;;;;;3.40;0.90;;;15.90;59.30;;;;;;4986281;28;20391;-74
2022/05/28 07:43:10;;;;;;;6.07;1.33;;;16.00;59.20;;;;;;4978130;28;20031;-74
2022/05/28 07:45:36;;;;;;;7.18;1.25;;;16.10;59.00;;;;;;4978547;28;20110;-75
2022/05/28 07:48:01;;;;;;;5.32;1.05;;;16.20;58.80;;;;;;4985491;28;20049;-74
2022/05/28 07:50:27;;;;;;;2.28;0.88;;;16.20;58.80;;;;;;4981160;28;20129;-74
2022/05/28 07:52:52;;;;;;;6.97;1.35;;;16.30;59.10;;;;;;4995886;28;20134;-74
2022/05/28 07:55:18;;;;;;;3.28;1.10;;;16.40;58.30;;;;;;4972708;28;20036;-74
2022/05/28 07:57:43;;;;;;;3.40;1.15;;;16.50;58.20;;;;;;4977479;28;20085;-74
2022/05/28 08:00:09;;;;;;;2.63;0.73;;;16.60;57.90;;;;;;4996229;28;20045;-74
2022/05/28 08:02:35;;;;;;;3.83;0.85;;;16.60;57.60;;;;;;4960709;28;20034;-75
2022/05/28 08:05:00;;;;;;;3.97;0.95;;;16.70;57.50;;;;;;4983021;28;20169;-74
2022/05/28 08:07:26;;;;;;;3.05;1.10;;;16.70;57.30;;;;;;4982412;28;20103;-73
2022/05/28 08:09:51;;;;;;;6.40;0.75;;;16.80;57.20;;;;;;4971200;28;20042;-74
2022/05/28 08:12:17;;;;;;;4.53;1.05;;;16.80;57.20;;;;;;4993571;28;20034;-75
2022/05/28 08:14:42;;;;;;;2.22;0.70;;;16.80;56.90;;;;;;4997897;28;20052;-75
2022/05/28 08:17:08;;;;;;;6.53;0.90;;;16.90;56.80;;;;;;4987502;28;20052;-75
2022/05/28 08:19:34;;;;;;;3.97;0.95;;;16.90;56.70;;;;;;4981464;28;20038;-75
2022/05/28 08:24:44;;;;;;;5.25;1.20;;;17.00;56.40;;;;;;4972442;28;20470;-75
2022/05/28 08:27:09;;;;;;;3.25;0.98;;;17.10;56.30;;;;;;4994077;28;20491;-75
2022/05/28 08:29:35;;;;;;;1.65;0.85;;;17.20;56.30;;;;;;4997056;28;20026;-73
2022/05/28 08:32:00;;;;;;;3.53;1.02;;;17.30;56.00;;;;;;4969804;28;20068;-73
2022/05/28 08:34:26;;;;;;;4.30;1.30;;;17.30;55.80;;;;;;4981238;28;20656;-74
2022/05/28 08:36:51;;;;;;;2.22;1.15;;;17.30;55.70;;;;;;4961601;28;20498;-74
2022/05/28 08:39:17;;;;;;;4.30;1.05;;;17.40;55.60;;;;;;4970064;28;20645;-74
2022/05/28 08:41:48;;;;;;;4.35;1.33;;;17.50;55.50;;;;;;4978641;28;20109;-74
2022/05/28 08:44:19;;;;;;;5.60;1.23;;;17.70;55.30;;;;;;4976992;28;20037;-74
2022/05/28 08:46:45;;;;;;;6.10;1.13;;;17.80;55.10;;;;;;4987920;28;20018;-75
2022/05/28 08:49:12;;;;;;;5.72;1.13;;;18.00;55.00;;;;;;4962745;28;20037;-74
2022/05/28 08:51:52;;;;;;;4.90;1.23;;;18.20;54.80;;;;;;4977304;28;20562;-74
2022/05/28 08:54:41;;;;;;;4.72;0.80;;;18.30;54.40;;;;;;4968966;28;20050;-74
2022/05/28 08:57:13;;;;;;;2.92;1.02;;;18.50;53.90;;;;;;4992740;28;20030;-74
2022/05/28 08:59:46;;;;;;;3.42;1.08;;;18.60;54.00;;;;;;4956001;28;20172;-75
2022/05/28 09:02:17;;;;;;;3.22;1.20;;;18.80;53.80;;;;;;4960882;28;20129;-75
2022/05/28 09:04:43;;;;;;;2.15;1.05;;;19.00;53.50;;;;;;4977768;28;20105;-76
2022/05/28 09:07:11;;;;;;;4.40;1.27;;;19.20;53.30;;;;;;4981363;28;20044;-76
2022/05/28 09:09:40;;;;;;;3.42;1.00;;;19.30;52.90;;;;;;4986522;28;20087;-75
2022/05/28 09:12:08;;;;;;;2.38;1.02;;;19.40;52.60;;;;;;4977761;28;20113;-75
2022/05/28 09:14:38;;;;;;;3.60;1.25;;;19.40;52.30;;;;;;4981877;28;20038;-75
2022/05/28 09:17:08;;;;;;;3.50;0.98;;;19.30;52.10;;;;;;4983792;28;20045;-75
2022/05/28 09:19:36;;;;;;;4.28;0.82;;;19.30;52.10;;;;;;4967447;28;20075;-74
2022/05/28 09:22:01;;;;;;;5.43;1.42;;;19.40;52.10;;;;;;4963673;28;20040;-74
2022/05/28 09:24:31;;;;;;;6.22;1.00;;;19.60;52.00;;;;;;4977518;28;20034;-74
2022/05/28 09:27:14;;;;;;;7.22;1.15;;;19.70;51.70;;;;;;4988327;28;20525;-74
2022/05/28 09:30:08;;;;;;;4.82;1.15;;;19.80;51.30;;;;;;4966968;28;21846;-74
2022/05/28 09:32:47;;;;;;;6.28;1.13;;;19.90;50.60;;;;;;4985860;28;20573;-74
2022/05/28 09:35:42;;;;;;;2.53;0.90;;;19.90;51.00;;;;;;4978856;28;20048;-71
2022/05/28 09:38:29;;;;;;;4.05;1.15;;;19.90;50.20;;;;;;4991719;28;20046;-74
2022/05/28 09:41:08;;;;;;;4.85;1.27;;;20.10;50.70;;;;;;4993502;28;20674;-75
2022/05/28 09:43:36;;;;;;;5.53;1.42;;;20.30;50.50;;;;;;4975857;28;20057;-75
2022/05/28 09:46:23;;;;;;;2.72;1.08;;;20.50;51.10;;;;;;4993621;28;20109;-75
2022/05/28 09:49:01;;;;;;;5.28;1.33;;;20.70;49.70;;;;;;4984200;28;20116;-76
2022/05/28 09:51:29;;;;;;;3.47;0.80;;;20.90;49.00;;;;;;4983181;28;20038;-75
2022/05/28 09:54:20;;;;;;;3.85;0.90;;;21.00;49.50;;;;;;4976435;28;20046;-76
2022/05/28 09:57:00;;;;;;;2.97;0.80;;;21.20;48.80;;;;;;4965708;28;20041;-78
2022/05/28 09:59:32;;;;;;;6.72;1.00;;;21.40;48.30;;;;;;4979262;28;20041;-77
2022/05/28 10:02:18;;;;;;;1.85;0.70;;;21.60;48.50;;;;;;4955435;28;20100;-75
2022/05/28 10:04:50;;;;;;;4.05;1.10;;;21.70;47.30;;;;;;4983453;28;20460;-75
2022/05/28 10:07:30;;;;;;;3.15;0.73;;;21.70;47.60;;;;;;4979077;28;20038;-77
2022/05/28 10:09:55;;;;;;;4.82;0.80;;;21.70;46.70;;;;;;4951575;28;20057;-75
2022/05/28 10:12:29;;;;;;;3.72;0.93;;;21.60;47.20;;;;;;4968239;28;20096;-77
2022/05/28 10:15:11;;;;;;;2.47;0.73;;;21.50;47.90;;;;;;4967218;28;20124;-76
2022/05/28 10:17:36;;;;;;;3.72;1.10;;;21.40;46.80;;;;;;4985690;28;20045;-75
2022/05/28 10:20:04;;;;;;;5.03;1.05;;;21.40;47.30;;;;;;4950722;28;20076;-76
2022/05/28 10:22:30;;;;;;;3.45;0.75;;;21.50;47.30;;;;;;4982756;28;20042;-75
2022/05/28 10:25:00;;;;;;;3.42;0.70;;;21.60;47.20;;;;;;4958946;28;20045;-76
2022/05/28 10:27:46;;;;;;;1.65;0.80;;;21.90;47.00;;;;;;4962809;28;20514;-76
2022/05/28 10:30:42;;;;;;;2.70;0.70;;;22.10;46.40;;;;;;4975780;28;20121;-75
2022/05/28 10:33:16;;;;;;;2.00;0.60;;;22.40;45.60;;;;;;4958651;28;20038;-75
2022/05/28 10:35:42;;;;;;;3.50;1.05;;;22.50;45.40;;;;;;5000465;28;20076;-75
2022/05/28 10:38:14;;;;;;;1.88;0.80;;;22.60;45.70;;;;;;4971705;28;20061;-74
2022/05/28 10:40:51;;;;;;;3.67;1.02;;;22.60;45.50;;;;;;4970644;28;20038;-76
2022/05/28 10:43:32;;;;;;;2.80;1.00;;;22.70;44.60;;;;;;4967332;28;20034;-76
2022/05/28 10:46:11;;;;;;;3.47;0.73;;;22.70;44.60;;;;;;4996789;28;20042;-76
2022/05/28 10:49:01;;;;;;;2.92;0.88;;;22.80;44.30;;;;;;4975712;28;20041;-76
2022/05/28 10:51:58;;;;;;;2.03;0.82;;;23.00;44.50;;;;;;4987147;28;20034;-75
2022/05/28 10:54:59;;;;;;;2.05;0.70;;;23.20;43.60;;;;;;4982834;28;20096;-75
2022/05/28 10:57:47;;;;;;;3.97;0.90;;;23.30;43.30;;;;;;4981605;28;20038;-76
2022/05/28 11:00:15;;;;;;;2.70;0.70;;;23.40;43.20;;;;;;4970209;28;20042;-76
2022/05/28 11:03:12;;;;;;;2.25;0.65;;;23.50;43.90;;;;;;4980986;28;20054;-77
2022/05/28 11:06:10;;;;;;;1.80;0.70;;;23.50;42.70;;;;;;4996749;28;20526;-76
2022/05/28 11:08:54;;;;;;;2.47;0.70;;;23.50;42.40;;;;;;4952716;28;20122;-75
2022/05/28 11:11:39;;;;;;;4.05;1.33;;;23.50;43.20;;;;;;4998417;28;20037;-77
2022/05/28 11:14:16;;;;;;;1.08;0.52;;;23.50;42.50;;;;;;4965602;28;20041;-76
2022/05/28 11:17:16;;;;;;;2.08;0.70;;;23.40;42.70;;;;;;4958067;28;20057;-76
2022/05/28 11:19:57;;;;;;;1.13;0.77;;;23.50;41.70;;;;;;4961491;28;20057;-77
2022/05/28 11:22:23;;;;;;;6.28;1.92;;;23.60;42.10;;;;;;4981811;28;20038;-75
2022/05/28 11:24:55;;;;;;;4.80;0.98;;;23.80;42.10;;;;;;4997253;28;20038;-76
2022/05/28 11:27:41;;;;;;;3.08;0.80;;;24.00;41.90;;;;;;4985927;28;20489;-77
2022/05/28 11:30:14;;;;;;;2.53;0.80;;;24.10;41.40;;;;;;4985894;28;20050;-73
2022/05/28 11:32:55;;;;;;;2.45;0.60;;;24.30;41.00;;;;;;4981366;28;20037;-77
2022/05/28 11:35:38;;;;;;;2.05;0.70;;;24.40;41.00;;;;;;4987593;28;20108;-73
2022/05/28 11:38:16;;;;;;;2.50;0.52;;;24.30;40.20;;;;;;4993977;28;20042;-76
2022/05/28 11:41:14;;;;;;;2.20;1.00;;;24.40;40.50;;;;;;4991746;28;20079;-76
2022/05/28 11:43:44;;;;;;;1.67;0.60;;;24.50;40.00;;;;;;4984569;28;20361;-76
2022/05/28 11:46:26;;;;;;;3.97;0.88;;;24.40;40.50;;;;;;4988862;28;20045;-76
2022/05/28 11:52:06;;;;;;;1.42;0.52;;;24.50;39.80;;;;;;4994751;28;20056;-77
2022/05/28 11:54:36;;;;;;;2.78;1.25;;;24.70;40.50;;;;;;4995259;28;20061;-73
2022/05/28 11:57:14;;;;;;;2.00;0.88;;;24.90;40.20;;;;;;4970166;28;20046;-76
2022/05/28 11:59:40;;;;;;;1.02;0.50;;;25.00;39.50;;;;;;4951204;28;20042;-73
2022/05/28 12:02:10;;;;;;;2.25;0.80;;;25.20;39.50;;;;;;4994112;28;20065;-76
2022/05/28 12:04:40;;;;;;;4.30;1.15;;;25.20;38.90;;;;;;4995124;28;20088;-76
2022/05/28 12:07:12;;;;;;;1.33;0.80;;;25.30;38.60;;;;;;4995216;28;20120;-76
2022/05/28 12:09:42;;;;;;;2.50;0.95;;;25.20;38.30;;;;;;4964788;28;20029;-75
2022/05/28 12:12:20;;;;;;;5.30;1.05;;;25.20;37.90;;;;;;4975176;28;20038;-75
2022/05/28 12:15:04;;;;;;;0.90;0.55;;;25.20;37.50;;;;;;4980328;28;20034;-74
2022/05/28 12:17:30;;;;;;;2.15;0.60;;;25.10;37.30;;;;;;4997100;28;20098;-76
2022/05/28 12:19:58;;;;;;;1.67;0.82;;;25.10;38.10;;;;;;4966050;28;20038;-76
2022/05/28 12:22:34;;;;;;;3.33;0.73;;;25.30;38.20;;;;;;4980195;28;20121;-75
2022/05/28 12:25:05;;;;;;;1.90;0.73;;;25.40;37.10;;;;;;4977438;28;20558;-77
2022/05/28 12:27:57;;;;;;;3.55;0.70;;;25.40;37.40;;;;;;4956231;28;20127;-76
2022/05/28 12:30:30;;;;;;;2.08;0.50;;;25.50;36.30;;;;;;4993334;28;20626;-76
2022/05/28 12:32:57;;;;;;;0.90;0.68;;;25.40;37.20;;;;;;4992371;28;20185;-75
2022/05/28 12:35:48;;;;;;;2.05;0.70;;;25.40;36.90;;;;;;4977434;28;20044;-75
2022/05/28 12:38:17;;;;;;;3.40;0.98;;;25.40;36.50;;;;;;4978351;28;20038;-74
2022/05/28 12:40:53;;;;;;;1.85;0.60;;;25.30;36.80;;;;;;4963663;28;20133;-75
2022/05/28 12:43:25;;;;;;;3.63;0.60;;;25.30;36.40;;;;;;4995577;28;20537;-76
2022/05/28 12:45:51;;;;;;;2.50;0.60;;;25.40;36.60;;;;;;4979079;28;20038;-75
2022/05/28 12:48:23;;;;;;;1.75;0.63;;;25.50;37.30;;;;;;4991322;28;20040;-75
2022/05/28 12:50:59;;;;;;;5.25;0.90;;;25.70;35.90;;;;;;4959441;28;20592;-74
2022/05/28 12:53:25;;;;;;;2.63;0.77;;;25.90;35.20;;;;;;4981707;28;20478;-76
2022/05/28 12:56:08;;;;;;;1.67;0.80;;;25.90;35.50;;;;;;4992740;28;20053;-74
2022/05/28 12:58:35;;;;;;;1.65;1.13;;;25.80;35.00;;;;;;4969061;28;20049;-75
2022/05/28 13:01:05;;;;;;;3.20;1.42;;;25.60;35.40;;;;;;4981699;28;20034;-75
2022/05/28 13:03:41;;;;;;;2.38;1.25;;;25.60;35.30;;;;;;4992555;28;20054;-76
2022/05/28 13:06:15;;;;;;;1.30;0.65;;;25.70;35.30;;;;;;4964743;28;20070;-76
2022/05/28 13:09:07;;;;;;;2.08;0.80;;;25.90;35.50;;;;;;4976478;28;20975;-75
2022/05/28 13:11:42;;;;;;;1.73;0.70;;;26.00;35.20;;;;;;4983281;28;20050;-74